Time;durP1;ratioP1;P1;durP2;ratioP2;P2;SDS_P1;SDS_P2;PMS_P1;PMS_P2;Temp;Humidity;BMP_temperature;BMP_pressure;BME280_temperature;BME280_humidity;BME280_pressure;Samples;Min_cycle;Max_cycle;Signal;HPM_P1;HPM_P2
2021/10/19 00:00:41;;;;;;;5.00;3.17;;;18.90;81.10;;;;;;5073833;28;20039;-76
2021/10/19 00:03:08;;;;;;;4.95;3.30;;;18.90;81.20;;;;;;5072834;28;20019;-76
2021/10/19 00:05:34;;;;;;;5.63;3.50;;;18.90;81.30;;;;;;5074034;28;20024;-76
2021/10/19 00:08:00;;;;;;;5.05;3.05;;;18.90;81.40;;;;;;5073828;28;20515;-76
2021/10/19 00:10:26;;;;;;;5.97;3.47;;;18.90;81.40;;;;;;5073353;28;20025;-76
2021/10/19 00:12:52;;;;;;;5.22;3.03;;;18.90;81.50;;;;;;5073589;28;20032;-76
2021/10/19 00:15:19;;;;;;;5.00;3.42;;;18.90;81.60;;;;;;5073321;28;20077;-76
2021/10/19 00:17:45;;;;;;;3.97;2.70;;;18.90;81.70;;;;;;5073364;28;20052;-76
2021/10/19 00:20:13;;;;;;;5.72;2.90;;;18.90;81.70;;;;;;5073302;28;20044;-75
2021/10/19 00:22:40;;;;;;;4.70;3.05;;;18.90;81.80;;;;;;5073645;28;20028;-76
2021/10/19 00:25:07;;;;;;;5.13;3.28;;;18.90;81.80;;;;;;5073677;28;20021;-76
2021/10/19 00:27:34;;;;;;;4.75;2.80;;;18.90;81.80;;;;;;5073249;28;20028;-75
2021/10/19 00:30:01;;;;;;;4.10;2.78;;;18.80;82.00;;;;;;5073335;28;20464;-76
2021/10/19 00:32:27;;;;;;;4.90;2.83;;;18.80;82.00;;;;;;5073057;28;20503;-75
2021/10/19 00:34:53;;;;;;;4.85;3.45;;;18.80;81.90;;;;;;5073296;28;20025;-76
2021/10/19 00:37:18;;;;;;;3.25;2.42;;;18.80;82.10;;;;;;5073035;28;20480;-76
2021/10/19 00:39:44;;;;;;;4.78;2.85;;;18.80;82.20;;;;;;5073157;28;20024;-76
2021/10/19 00:42:10;;;;;;;3.47;2.65;;;18.80;82.00;;;;;;5072853;28;20040;-76
2021/10/19 00:44:35;;;;;;;4.35;2.40;;;18.80;82.10;;;;;;5073363;28;20480;-76
2021/10/19 00:47:01;;;;;;;5.50;2.83;;;18.80;82.20;;;;;;5072949;28;20020;-76
2021/10/19 00:49:27;;;;;;;4.82;2.70;;;18.80;82.30;;;;;;5072699;28;20020;-77
2021/10/19 00:51:53;;;;;;;3.78;2.55;;;18.80;82.50;;;;;;5073036;28;20025;-76
2021/10/19 00:54:22;;;;;;;4.05;2.83;;;18.80;82.50;;;;;;5072497;28;20107;-76
2021/10/19 00:56:49;;;;;;;5.05;3.30;;;18.80;82.50;;;;;;5072792;28;20032;-76
2021/10/19 00:59:15;;;;;;;4.32;2.88;;;18.80;82.50;;;;;;5054516;28;20074;-76
2021/10/19 01:01:41;;;;;;;3.53;2.53;;;18.80;82.70;;;;;;5072721;28;20041;-76
2021/10/19 01:04:06;;;;;;;4.15;2.50;;;18.80;82.60;;;;;;5073097;28;20028;-76
2021/10/19 01:06:32;;;;;;;4.45;2.72;;;18.80;82.80;;;;;;5072347;28;20116;-76
2021/10/19 01:09:00;;;;;;;3.67;2.47;;;18.80;82.90;;;;;;5072555;28;20446;-76
2021/10/19 01:11:25;;;;;;;2.72;2.10;;;18.80;82.90;;;;;;5054305;28;20033;-76
2021/10/19 01:13:51;;;;;;;4.25;2.55;;;18.80;82.90;;;;;;5071941;28;20561;-76
2021/10/19 01:16:17;;;;;;;4.13;2.45;;;18.80;82.90;;;;;;5070929;28;20025;-76
2021/10/19 01:18:43;;;;;;;3.35;2.00;;;18.80;83.00;;;;;;5072462;28;20031;-76
2021/10/19 01:21:09;;;;;;;3.75;2.30;;;18.80;83.20;;;;;;5072017;28;20024;-76
2021/10/19 01:23:36;;;;;;;4.47;2.47;;;18.80;83.10;;;;;;5072621;28;20089;-76
2021/10/19 01:26:03;;;;;;;3.80;2.40;;;18.80;83.30;;;;;;5072243;28;20016;-76
2021/10/19 01:28:31;;;;;;;3.45;2.50;;;18.80;83.20;;;;;;5071931;28;20507;-76
2021/10/19 01:30:59;;;;;;;3.88;2.33;;;18.80;83.50;;;;;;5072105;28;20468;-76
2021/10/19 01:33:25;;;;;;;3.30;2.13;;;18.80;83.40;;;;;;5071935;28;20493;-76
2021/10/19 01:35:51;;;;;;;3.20;2.03;;;18.80;83.60;;;;;;5071944;28;20019;-76
2021/10/19 01:38:25;;;;;;;2.85;2.25;;;18.80;83.60;;;;;;5071742;28;20024;-76
2021/10/19 01:40:51;;;;;;;3.60;2.08;;;18.80;83.60;;;;;;5071771;28;20041;-77
2021/10/19 01:43:22;;;;;;;3.65;2.13;;;18.80;83.60;;;;;;5071741;28;20067;-77
2021/10/19 01:45:50;;;;;;;3.08;2.13;;;18.80;83.80;;;;;;5071883;28;20025;-76
2021/10/19 01:48:16;;;;;;;2.92;1.90;;;18.80;83.80;;;;;;5071614;28;20028;-76
2021/10/19 01:50:42;;;;;;;2.88;1.90;;;18.70;83.90;;;;;;5071819;28;20116;-76
2021/10/19 01:53:09;;;;;;;3.25;2.00;;;18.70;83.90;;;;;;5072150;28;20100;-76
2021/10/19 01:55:36;;;;;;;2.45;1.77;;;18.70;84.00;;;;;;5071997;28;20468;-76
2021/10/19 01:58:02;;;;;;;2.22;1.70;;;18.70;84.00;;;;;;5071721;28;20017;-76
2021/10/19 02:00:27;;;;;;;4.18;2.10;;;18.80;84.20;;;;;;5071399;28;20028;-76
2021/10/19 02:02:53;;;;;;;4.20;2.28;;;18.70;84.10;;;;;;5071497;28;20029;-76
2021/10/19 02:05:19;;;;;;;4.15;2.53;;;18.70;84.10;;;;;;5071333;28;20484;-76
2021/10/19 02:07:44;;;;;;;2.47;1.60;;;18.70;84.20;;;;;;5071544;28;20103;-76
2021/10/19 02:10:11;;;;;;;3.38;1.88;;;18.70;84.30;;;;;;5071287;28;20115;-76
2021/10/19 02:12:37;;;;;;;3.05;2.00;;;18.70;84.30;;;;;;5071742;28;20020;-76
2021/10/19 02:15:05;;;;;;;3.05;1.73;;;18.70;84.40;;;;;;5071438;28;20024;-77
2021/10/19 02:17:30;;;;;;;3.28;2.10;;;18.70;84.50;;;;;;5071122;28;20020;-77
2021/10/19 02:20:00;;;;;;;2.70;1.90;;;18.70;84.70;;;;;;5071334;28;20154;-77
2021/10/19 02:22:26;;;;;;;2.20;1.60;;;18.70;84.70;;;;;;5071137;28;20055;-77
2021/10/19 02:24:52;;;;;;;2.83;1.95;;;18.70;84.50;;;;;;5070612;28;20020;-77
2021/10/19 02:27:18;;;;;;;3.08;1.88;;;18.70;84.70;;;;;;5069729;28;20503;-77
2021/10/19 02:29:43;;;;;;;2.90;1.92;;;18.70;84.80;;;;;;5071346;28;20028;-76
2021/10/19 02:32:09;;;;;;;2.25;1.88;;;18.70;84.90;;;;;;5071017;28;20027;-77
2021/10/19 02:34:35;;;;;;;2.25;1.33;;;18.70;85.00;;;;;;5071529;28;20538;-76
2021/10/19 02:37:00;;;;;;;2.28;1.83;;;18.70;85.10;;;;;;5071114;28;20025;-77
2021/10/19 02:39:26;;;;;;;2.65;1.88;;;18.70;85.10;;;;;;5071009;28;20067;-77
2021/10/19 02:41:52;;;;;;;4.60;1.90;;;18.70;85.10;;;;;;5070972;28;20497;-76
2021/10/19 02:44:17;;;;;;;3.08;1.83;;;18.70;85.10;;;;;;5070882;28;20021;-76
2021/10/19 02:46:43;;;;;;;2.75;1.50;;;18.70;85.20;;;;;;5071070;28;20068;-77
2021/10/19 02:49:09;;;;;;;2.60;1.98;;;18.70;85.30;;;;;;5071121;28;20027;-76
2021/10/19 02:51:34;;;;;;;2.58;1.70;;;18.70;85.30;;;;;;5071289;28;20033;-77
2021/10/19 02:54:00;;;;;;;2.78;1.90;;;18.70;85.50;;;;;;5070975;28;20021;-76
2021/10/19 02:56:25;;;;;;;2.75;1.65;;;18.70;85.50;;;;;;5070822;28;20025;-77
2021/10/19 02:58:51;;;;;;;3.60;1.88;;;18.70;85.60;;;;;;5070976;28;20063;-77
2021/10/19 03:01:17;;;;;;;2.33;1.70;;;18.70;85.60;;;;;;5070581;28;20174;-76
2021/10/19 03:03:42;;;;;;;3.20;1.60;;;18.70;85.70;;;;;;5070968;28;20066;-77
2021/10/19 03:06:08;;;;;;;2.67;1.50;;;18.70;85.80;;;;;;5071199;28;20114;-77
2021/10/19 03:08:34;;;;;;;2.30;1.73;;;18.70;86.60;;;;;;5071131;28;20492;-77
2021/10/19 03:10:59;;;;;;;1.98;1.40;;;18.70;86.00;;;;;;5070887;28;20063;-76
2021/10/19 03:13:28;;;;;;;2.42;1.48;;;18.70;86.00;;;;;;5070343;28;20025;-76
2021/10/19 03:15:54;;;;;;;3.45;1.65;;;18.70;85.90;;;;;;5070794;28;20029;-77
2021/10/19 03:18:20;;;;;;;3.03;1.65;;;18.60;85.90;;;;;;5070543;28;20024;-77
2021/10/19 03:20:45;;;;;;;2.20;1.73;;;18.70;86.10;;;;;;5070713;28;20033;-76
2021/10/19 03:23:11;;;;;;;3.35;1.73;;;18.60;86.20;;;;;;5070519;28;20078;-76
2021/10/19 03:25:37;;;;;;;2.80;1.80;;;18.70;86.20;;;;;;5071003;28;20031;-77
2021/10/19 03:28:02;;;;;;;2.60;1.70;;;18.60;86.30;;;;;;5070746;28;20020;-76
2021/10/19 03:30:28;;;;;;;2.03;1.52;;;18.60;86.30;;;;;;5070311;28;20415;-76
2021/10/19 03:32:54;;;;;;;2.35;1.67;;;18.70;86.50;;;;;;5070588;28;20025;-76
2021/10/19 03:35:20;;;;;;;2.63;1.70;;;18.60;86.60;;;;;;5070430;28;20024;-76
2021/10/19 03:37:45;;;;;;;2.13;1.70;;;18.60;86.60;;;;;;5073569;28;20024;-76
2021/10/19 03:40:11;;;;;;;2.45;1.67;;;18.60;86.50;;;;;;5074060;28;20078;-76
2021/10/19 03:42:41;;;;;;;2.75;1.88;;;18.60;86.60;;;;;;5074533;28;20040;-76
2021/10/19 03:45:08;;;;;;;3.65;1.70;;;18.60;86.80;;;;;;5074316;28;20025;-76
2021/10/19 03:47:34;;;;;;;1.98;1.50;;;18.60;86.90;;;;;;5074483;28;20020;-76
2021/10/19 03:50:00;;;;;;;2.38;1.63;;;18.60;86.80;;;;;;5073985;28;20028;-76
2021/10/19 03:52:26;;;;;;;2.17;1.52;;;18.60;86.90;;;;;;5072501;28;20021;-76
2021/10/19 03:54:51;;;;;;;3.53;1.60;;;18.60;86.90;;;;;;5074123;28;20029;-77
2021/10/19 03:57:17;;;;;;;2.60;1.48;;;18.60;87.10;;;;;;5073645;28;20043;-77
2021/10/19 03:59:42;;;;;;;2.97;1.60;;;18.60;87.10;;;;;;5073842;28;20035;-77
2021/10/19 04:02:08;;;;;;;3.22;1.60;;;18.60;87.20;;;;;;5074158;28;20082;-76
2021/10/19 04:04:36;;;;;;;2.45;1.77;;;18.70;87.30;;;;;;5074133;28;20024;-76
2021/10/19 04:07:01;;;;;;;2.97;2.00;;;18.60;87.40;;;;;;5073870;28;20028;-76
2021/10/19 04:09:27;;;;;;;2.55;1.70;;;18.60;87.40;;;;;;5073551;28;20013;-76
2021/10/19 04:11:53;;;;;;;2.53;1.77;;;18.60;87.40;;;;;;5055805;28;20078;-76
2021/10/19 04:14:18;;;;;;;2.40;1.77;;;18.60;87.60;;;;;;5073563;28;20044;-76
2021/10/19 04:16:44;;;;;;;2.10;1.58;;;18.60;87.70;;;;;;5073676;28;20055;-76
2021/10/19 04:19:10;;;;;;;2.90;2.00;;;18.60;87.70;;;;;;5073390;28;20070;-76
2021/10/19 04:21:35;;;;;;;4.15;1.83;;;18.60;87.80;;;;;;5073722;28;20046;-77
2021/10/19 04:24:01;;;;;;;2.55;1.85;;;18.70;88.00;;;;;;5073550;28;20103;-77
2021/10/19 04:26:26;;;;;;;3.10;1.80;;;18.60;87.80;;;;;;5073173;28;20032;-76
2021/10/19 04:28:52;;;;;;;3.90;1.80;;;18.60;88.70;;;;;;5073335;28;20052;-76
2021/10/19 04:31:18;;;;;;;3.33;1.70;;;18.60;88.00;;;;;;5073068;28;20146;-76
2021/10/19 04:33:43;;;;;;;2.92;1.45;;;18.70;88.10;;;;;;5073328;28;20054;-76
2021/10/19 04:36:09;;;;;;;2.13;1.33;;;18.60;88.10;;;;;;5073065;28;20033;-77
2021/10/19 04:38:35;;;;;;;2.67;1.58;;;18.60;88.10;;;;;;5073547;28;20032;-76
2021/10/19 04:41:02;;;;;;;2.60;1.52;;;18.60;88.20;;;;;;5073000;28;20032;-76
2021/10/19 04:43:28;;;;;;;3.05;1.70;;;18.60;88.30;;;;;;5072896;28;20024;-76
2021/10/19 04:45:54;;;;;;;2.20;1.80;;;18.60;88.30;;;;;;5072979;28;20021;-76
2021/10/19 04:48:21;;;;;;;2.38;1.75;;;18.60;88.40;;;;;;5072084;28;20024;-76
2021/10/19 04:50:47;;;;;;;2.63;1.75;;;18.60;88.50;;;;;;5072958;28;20012;-76
2021/10/19 04:53:13;;;;;;;2.60;1.70;;;18.60;88.50;;;;;;5072745;28;20035;-76
2021/10/19 04:55:39;;;;;;;2.97;1.70;;;18.60;88.70;;;;;;5072782;28;20017;-76
2021/10/19 04:58:04;;;;;;;3.22;1.65;;;18.60;88.70;;;;;;5073136;28;20040;-76
2021/10/19 05:00:30;;;;;;;2.42;1.70;;;18.60;88.90;;;;;;5072288;28;20469;-77
2021/10/19 05:02:57;;;;;;;2.13;1.38;;;18.60;88.90;;;;;;5072655;28;20095;-76
2021/10/19 05:05:23;;;;;;;1.83;1.50;;;18.60;89.00;;;;;;5072353;28;20365;-76
2021/10/19 05:07:48;;;;;;;1.98;1.67;;;18.60;89.10;;;;;;5072627;28;20476;-76
2021/10/19 05:10:15;;;;;;;1.88;1.42;;;18.70;89.30;;;;;;5072342;28;20043;-76
2021/10/19 05:12:41;;;;;;;2.45;1.30;;;18.60;89.10;;;;;;5072235;28;20058;-77
2021/10/19 05:15:07;;;;;;;1.55;1.27;;;18.70;89.30;;;;;;5072690;28;20096;-76
2021/10/19 05:17:33;;;;;;;2.10;1.48;;;18.70;89.60;;;;;;5054302;28;20186;-77
2021/10/19 05:19:59;;;;;;;2.03;1.45;;;18.70;89.60;;;;;;5054209;28;20536;-76
2021/10/19 05:22:25;;;;;;;2.22;1.52;;;18.70;89.60;;;;;;5071994;28;20504;-76
2021/10/19 05:24:51;;;;;;;3.38;1.67;;;18.70;89.50;;;;;;5072225;28;20048;-76
2021/10/19 05:27:17;;;;;;;2.05;1.35;;;18.70;89.70;;;;;;5071736;28;20476;-76
2021/10/19 05:29:42;;;;;;;1.45;1.30;;;18.80;89.90;;;;;;5072060;28;20017;-76
2021/10/19 05:32:08;;;;;;;2.60;1.48;;;18.80;89.90;;;;;;5071057;28;20525;-77
2021/10/19 05:34:34;;;;;;;1.73;1.23;;;18.80;89.90;;;;;;5072293;28;20042;-77
2021/10/19 05:37:00;;;;;;;3.53;1.65;;;18.80;90.00;;;;;;5072022;28;20032;-76
2021/10/19 05:39:25;;;;;;;1.95;1.40;;;18.80;90.10;;;;;;5071610;28;20492;-77
2021/10/19 05:41:51;;;;;;;2.40;1.70;;;18.80;90.00;;;;;;5071683;28;20024;-77
2021/10/19 05:44:17;;;;;;;5.05;1.60;;;18.90;90.10;;;;;;5071594;28;20503;-77
2021/10/19 05:46:42;;;;;;;2.72;1.60;;;18.90;90.10;;;;;;5071950;28;20035;-77
2021/10/19 05:49:08;;;;;;;2.53;1.48;;;18.90;90.10;;;;;;5072020;28;20020;-76
2021/10/19 05:51:34;;;;;;;2.60;1.60;;;18.90;90.10;;;;;;5071968;28;20021;-76
2021/10/19 05:54:00;;;;;;;3.17;1.65;;;18.90;90.10;;;;;;5071321;28;20450;-76
2021/10/19 05:56:25;;;;;;;1.95;1.50;;;18.90;90.20;;;;;;5053485;28;20025;-76
2021/10/19 05:58:51;;;;;;;2.83;1.55;;;18.90;90.20;;;;;;5071636;28;20078;-77
2021/10/19 06:01:17;;;;;;;2.25;1.52;;;19.00;90.20;;;;;;5071191;28;20484;-77
2021/10/19 06:03:42;;;;;;;3.72;1.80;;;19.00;90.30;;;;;;5071521;28;20025;-77
2021/10/19 06:06:11;;;;;;;1.58;1.38;;;19.00;90.30;;;;;;5071727;28;20028;-77
2021/10/19 06:08:37;;;;;;;2.90;1.70;;;19.00;90.30;;;;;;5071727;28;20381;-76
2021/10/19 06:11:03;;;;;;;2.40;1.42;;;19.00;90.40;;;;;;5071418;28;20157;-77
2021/10/19 06:13:29;;;;;;;2.03;1.60;;;19.00;90.40;;;;;;5071031;28;20450;-77
2021/10/19 06:15:55;;;;;;;3.28;1.90;;;19.00;90.30;;;;;;5053457;28;20119;-76
2021/10/19 06:18:21;;;;;;;3.38;1.90;;;19.00;90.30;;;;;;5071422;28;20025;-79
2021/10/19 06:20:49;;;;;;;2.92;1.90;;;19.00;90.40;;;;;;5071595;28;20052;-78
2021/10/19 06:23:15;;;;;;;2.70;1.90;;;19.10;90.50;;;;;;5071068;28;20106;-79
2021/10/19 06:25:41;;;;;;;4.40;2.10;;;19.10;90.70;;;;;;5071862;28;20439;-76
2021/10/19 06:28:07;;;;;;;5.90;3.88;;;19.10;91.10;;;;;;5071581;28;20086;-77
2021/10/19 06:30:33;;;;;;;5.40;2.85;;;19.10;91.10;;;;;;5071009;28;20063;-76
2021/10/19 06:32:58;;;;;;;6.72;3.22;;;19.10;91.10;;;;;;5071256;28;20021;-75
2021/10/19 06:35:24;;;;;;;6.90;3.15;;;19.10;91.80;;;;;;5071001;28;20037;-74
2021/10/19 06:37:49;;;;;;;6.35;3.72;;;19.10;92.00;;;;;;5071294;28;20024;-75
2021/10/19 06:40:15;;;;;;;15.48;5.45;;;19.20;92.00;;;;;;5070808;28;20032;-76
2021/10/19 06:42:42;;;;;;;12.60;5.45;;;19.20;92.20;;;;;;5071151;28;20574;-77
2021/10/19 06:45:09;;;;;;;12.00;4.32;;;19.20;92.70;;;;;;5069825;28;20387;-76
2021/10/19 06:47:34;;;;;;;7.47;4.15;;;19.20;92.70;;;;;;5070388;28;20056;-75
2021/10/19 06:50:01;;;;;;;9.10;3.70;;;19.20;92.80;;;;;;5069458;28;20060;-76
2021/10/19 06:52:30;;;;;;;11.23;4.78;;;19.20;92.90;;;;;;5069878;28;20020;-76
2021/10/19 06:54:59;;;;;;;8.70;4.32;;;19.20;93.10;;;;;;5070990;28;20522;-78
2021/10/19 06:57:27;;;;;;;7.47;4.63;;;19.20;93.10;;;;;;5070724;28;20028;-78
2021/10/19 06:59:53;;;;;;;7.78;4.45;;;19.20;93.00;;;;;;5070241;28;20071;-78
2021/10/19 07:02:18;;;;;;;9.55;4.05;;;19.30;93.10;;;;;;5069991;28;20068;-78
2021/10/19 07:04:44;;;;;;;9.15;4.63;;;19.30;93.00;;;;;;5069739;28;20508;-78
2021/10/19 07:07:10;;;;;;;7.53;3.78;;;19.20;92.90;;;;;;5070470;28;20154;-77
2021/10/19 07:09:35;;;;;;;8.60;3.90;;;19.30;93.10;;;;;;5070499;28;20025;-79
2021/10/19 07:12:03;;;;;;;8.95;4.50;;;19.30;93.00;;;;;;5070772;28;20052;-78
2021/10/19 07:14:29;;;;;;;6.38;3.75;;;19.30;92.90;;;;;;5072611;28;20024;-77
2021/10/19 07:16:55;;;;;;;12.57;4.03;;;19.20;92.90;;;;;;5073142;28;20029;-78
2021/10/19 07:19:21;;;;;;;8.90;4.57;;;19.20;93.00;;;;;;5074468;28;20099;-77
2021/10/19 07:21:46;;;;;;;6.90;4.05;;;19.30;92.90;;;;;;5073744;28;20064;-77
2021/10/19 07:24:12;;;;;;;7.85;3.28;;;19.30;92.80;;;;;;5074477;28;20486;-77
2021/10/19 07:26:38;;;;;;;10.10;4.20;;;19.30;92.90;;;;;;5074448;28;20033;-77
2021/10/19 07:29:03;;;;;;;8.90;4.40;;;19.30;92.90;;;;;;5054635;28;20396;-77
2021/10/19 07:31:29;;;;;;;9.73;3.72;;;19.30;93.00;;;;;;5071893;28;20117;-77
2021/10/19 07:33:55;;;;;;;5.35;3.33;;;19.30;93.00;;;;;;5073320;28;20020;-77
2021/10/19 07:36:20;;;;;;;5.85;3.80;;;19.30;92.90;;;;;;5056261;28;20028;-77
2021/10/19 07:38:48;;;;;;;7.55;4.10;;;19.20;92.90;;;;;;5073637;28;20028;-77
2021/10/19 07:41:13;;;;;;;6.88;4.00;;;19.30;92.90;;;;;;5073049;28;20071;-77
2021/10/19 07:43:39;;;;;;;7.95;3.35;;;19.30;92.80;;;;;;5073055;28;20063;-77
2021/10/19 07:46:05;;;;;;;7.13;3.40;;;19.30;92.90;;;;;;5073402;28;20033;-76
2021/10/19 07:48:30;;;;;;;7.30;4.63;;;19.30;92.90;;;;;;5072431;28;20021;-76
2021/10/19 07:50:56;;;;;;;6.00;3.58;;;19.20;92.90;;;;;;5073601;28;20028;-76
2021/10/19 07:53:22;;;;;;;5.30;3.53;;;19.20;92.80;;;;;;5073196;28;20032;-76
2021/10/19 07:55:47;;;;;;;5.53;3.65;;;19.20;92.90;;;;;;5074077;28;20063;-76
2021/10/19 07:58:13;;;;;;;7.05;3.63;;;19.30;92.90;;;;;;5073814;28;20078;-76
2021/10/19 08:00:39;;;;;;;6.57;3.70;;;19.30;92.90;;;;;;5072313;28;20037;-76
2021/10/19 08:03:04;;;;;;;4.95;3.30;;;19.30;92.90;;;;;;5074365;28;20033;-77
2021/10/19 08:05:30;;;;;;;6.65;3.60;;;19.30;92.90;;;;;;5055734;28;20452;-77
2021/10/19 08:08:07;;;;;;;6.38;3.78;;;19.30;92.90;;;;;;5073897;28;20029;-77
2021/10/19 08:10:33;;;;;;;5.35;3.28;;;19.20;93.00;;;;;;5073561;28;20024;-77
2021/10/19 08:12:59;;;;;;;6.28;3.25;;;19.30;92.90;;;;;;5073352;28;20037;-77
2021/10/19 08:15:25;;;;;;;5.22;3.30;;;19.20;92.90;;;;;;5073498;28;20569;-77
2021/10/19 08:17:50;;;;;;;8.07;3.63;;;19.20;93.00;;;;;;5073221;28;20067;-77
2021/10/19 08:20:16;;;;;;;4.95;3.42;;;19.20;93.00;;;;;;5073238;28;20102;-76
2021/10/19 08:22:42;;;;;;;7.63;3.55;;;19.20;93.00;;;;;;5071745;28;20063;-76
2021/10/19 08:25:10;;;;;;;5.75;3.40;;;19.20;93.00;;;;;;5073416;28;20048;-76
2021/10/19 08:27:37;;;;;;;6.00;3.58;;;19.30;93.10;;;;;;5055712;28;20029;-78
2021/10/19 08:30:05;;;;;;;5.95;3.53;;;19.20;93.20;;;;;;5072923;28;20024;-77
2021/10/19 08:32:31;;;;;;;5.05;3.17;;;19.20;93.20;;;;;;5071314;28;20023;-77
2021/10/19 08:34:56;;;;;;;6.03;3.13;;;19.20;93.70;;;;;;5072372;28;20147;-78
2021/10/19 08:37:22;;;;;;;6.32;3.40;;;19.20;93.40;;;;;;5072253;28;20108;-77
2021/10/19 08:39:48;;;;;;;5.93;3.45;;;19.20;93.40;;;;;;5071252;28;20509;-77
2021/10/19 08:42:14;;;;;;;5.13;3.30;;;19.20;93.40;;;;;;5072088;28;20037;-77
2021/10/19 08:44:41;;;;;;;8.27;3.35;;;19.20;93.40;;;;;;5073163;28;20512;-78
2021/10/19 08:47:07;;;;;;;4.75;3.40;;;19.20;93.50;;;;;;5072268;28;20388;-78
2021/10/19 08:49:33;;;;;;;4.40;2.92;;;19.20;93.50;;;;;;5072437;28;20029;-78
2021/10/19 08:51:59;;;;;;;4.75;3.13;;;19.20;93.50;;;;;;5072390;28;20162;-78
2021/10/19 08:54:25;;;;;;;4.80;3.55;;;19.20;93.50;;;;;;5068597;28;20124;-78
2021/10/19 08:56:51;;;;;;;6.53;3.20;;;19.20;93.50;;;;;;5072197;28;20027;-77
2021/10/19 08:59:26;;;;;;;4.65;3.30;;;19.20;93.50;;;;;;5070987;28;20025;-78
2021/10/19 09:01:56;;;;;;;5.20;3.15;;;19.20;93.90;;;;;;5069179;28;20496;-78
2021/10/19 09:04:28;;;;;;;6.25;3.25;;;19.20;93.60;;;;;;5070684;28;20488;-77
2021/10/19 09:06:54;;;;;;;4.45;3.17;;;19.20;93.60;;;;;;5072389;28;20108;-78
2021/10/19 09:09:24;;;;;;;4.15;2.90;;;19.20;93.40;;;;;;5072445;28;20013;-77
2021/10/19 09:11:51;;;;;;;7.25;3.55;;;19.20;93.60;;;;;;5072683;28;20056;-77
2021/10/19 09:14:19;;;;;;;4.28;3.00;;;19.20;93.50;;;;;;5072155;28;20473;-78
2021/10/19 09:16:50;;;;;;;4.57;3.13;;;19.20;93.50;;;;;;5072459;28;20031;-76
2021/10/19 09:19:18;;;;;;;5.65;2.75;;;19.20;93.70;;;;;;5072151;28;20112;-76
2021/10/19 09:21:45;;;;;;;3.72;2.92;;;19.20;94.00;;;;;;5071591;28;20082;-78
2021/10/19 09:24:34;;;;;;;4.13;2.65;;;19.20;94.30;;;;;;5070451;28;20096;-78
2021/10/19 09:27:11;;;;;;;6.15;2.75;;;19.20;94.20;;;;;;5063572;28;20082;-77
2021/10/19 09:29:41;;;;;;;6.95;2.95;;;19.20;94.00;;;;;;5072677;28;20048;-77
2021/10/19 09:32:08;;;;;;;6.30;2.75;;;19.30;94.40;;;;;;5054632;28;20028;-79
2021/10/19 09:34:36;;;;;;;4.20;2.47;;;19.30;94.40;;;;;;5054142;28;20027;-78
2021/10/19 09:37:04;;;;;;;4.53;2.45;;;19.30;94.50;;;;;;5070388;28;20488;-78
2021/10/19 09:39:44;;;;;;;3.78;2.30;;;19.30;94.50;;;;;;5069762;28;20020;-78
2021/10/19 09:42:24;;;;;;;4.15;2.88;;;19.40;94.70;;;;;;5069492;28;20033;-77
2021/10/19 09:45:00;;;;;;;3.15;2.40;;;19.40;94.70;;;;;;5071144;28;20472;-80
2021/10/19 09:47:28;;;;;;;6.93;2.38;;;19.50;94.80;;;;;;5071305;28;20098;-77
2021/10/19 09:49:55;;;;;;;4.97;2.30;;;19.60;94.70;;;;;;5071688;28;20484;-77
2021/10/19 09:52:21;;;;;;;4.93;2.20;;;19.60;94.70;;;;;;5070475;28;20032;-80
2021/10/19 09:54:51;;;;;;;4.45;2.83;;;19.60;94.80;;;;;;5071615;28;20074;-77
2021/10/19 09:57:18;;;;;;;3.35;1.77;;;19.60;94.60;;;;;;5071448;28;20025;-77
2021/10/19 09:59:45;;;;;;;3.42;2.47;;;19.70;94.50;;;;;;5071704;28;20024;-77
2021/10/19 10:02:14;;;;;;;6.03;2.10;;;19.70;94.60;;;;;;5070717;28;20090;-77
2021/10/19 10:04:41;;;;;;;3.50;2.20;;;19.80;94.60;;;;;;5071467;28;20024;-77
2021/10/19 10:07:10;;;;;;;4.57;2.55;;;19.80;94.50;;;;;;5071935;28;20032;-79
2021/10/19 10:09:36;;;;;;;3.70;1.73;;;19.90;94.40;;;;;;5071586;28;20025;-78
2021/10/19 10:12:06;;;;;;;2.53;1.83;;;19.90;94.50;;;;;;5071105;28;20016;-77
2021/10/19 10:14:45;;;;;;;3.13;2.05;;;19.90;94.40;;;;;;5070405;28;20579;-77
2021/10/19 10:17:11;;;;;;;4.07;1.88;;;20.00;94.50;;;;;;5069976;28;20067;-77
2021/10/19 10:19:38;;;;;;;3.03;1.75;;;20.00;94.40;;;;;;5071636;28;20032;-77
2021/10/19 10:22:14;;;;;;;6.25;2.00;;;20.10;94.20;;;;;;5071510;28;20044;-77
2021/10/19 10:24:41;;;;;;;2.72;1.73;;;20.10;94.20;;;;;;5071585;28;20024;-77
2021/10/19 10:27:13;;;;;;;3.95;1.92;;;20.10;94.20;;;;;;5071601;28;20107;-77
2021/10/19 10:29:45;;;;;;;4.25;2.47;;;20.20;94.20;;;;;;5071712;28;20020;-77
2021/10/19 10:32:30;;;;;;;5.63;2.10;;;20.20;94.20;;;;;;5070771;28;20101;-75
2021/10/19 10:35:05;;;;;;;2.13;1.30;;;20.30;94.50;;;;;;5071304;28;20085;-76
2021/10/19 10:37:37;;;;;;;2.97;1.70;;;20.30;94.10;;;;;;5070704;28;20392;-75
2021/10/19 10:40:04;;;;;;;2.78;1.60;;;20.40;94.10;;;;;;5053221;28;20074;-75
2021/10/19 10:42:38;;;;;;;3.13;2.25;;;20.40;94.10;;;;;;5070943;28;20025;-79
2021/10/19 10:45:35;;;;;;;4.78;2.60;;;20.50;94.20;;;;;;5071112;28;20024;-79
2021/10/19 10:48:04;;;;;;;3.25;1.80;;;20.50;94.00;;;;;;5070101;28;20445;-76
2021/10/19 10:50:31;;;;;;;2.85;1.60;;;20.60;94.00;;;;;;5070903;28;20492;-77
2021/10/19 10:53:00;;;;;;;3.63;2.03;;;20.60;94.10;;;;;;5070811;28;20103;-76
2021/10/19 10:55:26;;;;;;;2.90;1.80;;;20.60;94.10;;;;;;5070464;28;20051;-76
2021/10/19 10:57:52;;;;;;;2.92;1.88;;;20.60;94.10;;;;;;5070631;28;20027;-76
2021/10/19 11:00:25;;;;;;;2.97;2.15;;;20.70;94.20;;;;;;5052785;28;20451;-77
2021/10/19 11:03:06;;;;;;;2.53;1.70;;;20.80;94.30;;;;;;5071054;28;20029;-77
2021/10/19 11:05:31;;;;;;;2.47;1.60;;;20.80;94.20;;;;;;5070406;28;20388;-77
2021/10/19 11:07:57;;;;;;;3.58;1.77;;;20.80;94.20;;;;;;5070636;28;20028;-76
2021/10/19 11:10:23;;;;;;;2.70;1.42;;;20.90;94.60;;;;;;5069594;28;20544;-76
2021/10/19 11:12:59;;;;;;;3.47;1.65;;;20.90;94.50;;;;;;5070358;28;20037;-77
2021/10/19 11:15:25;;;;;;;4.85;2.00;;;21.00;94.30;;;;;;5070641;28;20060;-78
2021/10/19 11:17:52;;;;;;;5.65;2.00;;;21.00;94.10;;;;;;5069036;28;20484;-77
2021/10/19 11:20:20;;;;;;;3.63;1.95;;;21.00;94.00;;;;;;5050940;28;20020;-77
2021/10/19 11:22:48;;;;;;;3.10;2.17;;;21.00;93.90;;;;;;5068087;28;20029;-77
2021/10/19 11:25:15;;;;;;;3.28;1.83;;;21.10;93.80;;;;;;5068262;28;20384;-77
2021/10/19 11:27:42;;;;;;;3.92;2.03;;;21.10;93.80;;;;;;5068825;28;20079;-77
2021/10/19 11:30:09;;;;;;;3.10;2.13;;;21.10;93.70;;;;;;5069237;28;20062;-77
2021/10/19 11:32:36;;;;;;;3.47;2.03;;;21.10;93.80;;;;;;5069450;28;20032;-77
2021/10/19 11:35:04;;;;;;;4.57;2.08;;;21.10;93.70;;;;;;5069059;28;20021;-78
2021/10/19 11:37:29;;;;;;;4.95;2.22;;;21.10;93.70;;;;;;5068753;28;20077;-78
2021/10/19 11:40:07;;;;;;;7.38;2.47;;;21.10;93.60;;;;;;5069597;28;20480;-77
2021/10/19 11:42:48;;;;;;;3.47;1.80;;;21.10;93.60;;;;;;5069727;28;20534;-77
2021/10/19 11:45:15;;;;;;;6.30;2.25;;;21.00;93.30;;;;;;5078705;28;20066;-77
2021/10/19 11:47:46;;;;;;;3.92;2.00;;;21.10;93.70;;;;;;5054216;28;20056;-75
2021/10/19 11:50:15;;;;;;;3.30;2.10;;;21.00;93.70;;;;;;5058249;28;20025;-77
2021/10/19 11:52:41;;;;;;;7.15;2.08;;;21.10;93.70;;;;;;5070210;28;20059;-77
2021/10/19 11:55:08;;;;;;;3.45;2.35;;;21.10;93.80;;;;;;5068979;28;20086;-77
2021/10/19 11:57:38;;;;;;;4.70;2.78;;;21.10;94.00;;;;;;5071329;28;20052;-77
2021/10/19 12:00:10;;;;;;;5.10;2.53;;;21.10;94.00;;;;;;5074191;28;20549;-77
2021/10/19 12:02:46;;;;;;;3.85;2.65;;;21.10;94.20;;;;;;5074049;28;20032;-77
2021/10/19 12:05:11;;;;;;;4.43;2.95;;;21.10;94.10;;;;;;5073427;28;20048;-77
2021/10/19 12:07:47;;;;;;;5.47;2.70;;;21.10;94.30;;;;;;5073193;28;20074;-77
2021/10/19 12:10:13;;;;;;;4.57;2.30;;;21.20;94.00;;;;;;5072388;28;20027;-77
2021/10/19 12:12:38;;;;;;;4.45;2.13;;;21.20;93.90;;;;;;5071958;28;20032;-76
2021/10/19 12:15:05;;;;;;;5.47;2.47;;;21.20;94.00;;;;;;5072416;28;20081;-77
2021/10/19 12:17:30;;;;;;;3.97;2.92;;;21.20;94.00;;;;;;5071795;28;20020;-77
2021/10/19 12:19:56;;;;;;;5.43;2.85;;;21.50;94.10;;;;;;5072114;28;20066;-77
2021/10/19 12:22:34;;;;;;;6.80;2.97;;;22.20;92.60;;;;;;5071624;28;20079;-80
2021/10/19 12:25:04;;;;;;;6.05;2.47;;;22.80;91.20;;;;;;5070745;28;20499;-78
2021/10/19 12:27:29;;;;;;;3.60;2.60;;;23.20;89.60;;;;;;5051224;28;20035;-78
2021/10/19 12:29:55;;;;;;;4.65;2.75;;;23.50;87.30;;;;;;5071830;28;20025;-77
2021/10/19 12:32:32;;;;;;;5.63;3.33;;;23.70;85.80;;;;;;5071483;28;20032;-76
2021/10/19 12:35:02;;;;;;;5.75;3.17;;;23.60;85.50;;;;;;5070611;28;20024;-76
2021/10/19 12:37:36;;;;;;;6.32;2.83;;;23.50;85.50;;;;;;5071473;28;20099;-76
2021/10/19 12:40:05;;;;;;;3.67;2.95;;;23.40;86.20;;;;;;5071831;28;20107;-78
2021/10/19 12:42:31;;;;;;;5.97;2.80;;;23.30;86.50;;;;;;5068895;28;20034;-81
2021/10/19 12:44:57;;;;;;;6.78;3.40;;;23.20;86.70;;;;;;5053621;28;20027;-78